Time;durP1;ratioP1;P1;durP2;ratioP2;P2;SDS_P1;SDS_P2;PMS_P1;PMS_P2;Temp;Humidity;BMP_temperature;BMP_pressure;BME280_temperature;BME280_humidity;BME280_pressure;Samples;Min_cycle;Max_cycle;Signal;HPM_P1;HPM_P2
2023/09/25 00:07:43;;;;;;;;;;;;;;;;;;;;;
2023/09/25 00:27:08;;;;;;;1.13;0.93;;;;;;;;;;10105605;29;20049;-77
2023/09/25 00:32:40;;;;;;;2.35;0.70;;;;;;;;;;10163970;29;20145;-77
2023/09/25 00:45:21;;;;;;;1.52;0.95;;;;;;;;;;10112655;29;20099;-76
2023/09/25 01:05:01;;;;;;;0.98;0.80;;;;;;;;;;10165592;29;20043;-76
2023/09/25 01:16:57;;;;;;;1.02;0.60;;;;;;;;;;10202899;29;20080;-76
2023/09/25 01:23:04;;;;;;;2.63;0.73;;;;;;;;;;10183376;29;20055;-77
2023/09/25 01:28:31;;;;;;;0.60;0.60;;;;;;;;;;10306660;28;20154;-76
2023/09/25 01:34:24;;;;;;;0.63;0.60;;;;;;;;;;10314108;28;20038;-76
2023/09/25 01:39:32;;;;;;;0.50;0.50;;;;;;;;;;10369380;23;20444;-76
2023/09/25 01:44:37;;;;;;;0.65;0.63;;;;;;;;;;10364912;28;20049;-77
2023/09/25 01:49:41;;;;;;;1.00;0.60;;;;;;;;;;10352277;28;20074;-76
2023/09/25 01:54:44;;;;;;;0.98;0.52;;;;;;;;;;10334666;28;20077;-76
2023/09/25 01:59:49;;;;;;;0.85;0.60;;;;;;;;;;10345390;28;20080;-77
2023/09/25 02:04:52;;;;;;;1.23;1.05;;;;;;;;;;10346107;28;20129;-76
2023/09/25 02:09:56;;;;;;;1.88;0.90;;;;;;;;;;10335222;28;20508;-76
2023/09/25 02:15:03;;;;;;;0.60;0.60;;;;;;;;;;10345572;28;20056;-76
2023/09/25 02:20:20;;;;;;;2.00;0.80;;;;;;;;;;10352334;28;20065;-76
2023/09/25 02:25:23;;;;;;;2.30;0.80;;;;;;;;;;10338114;28;20692;-77
2023/09/25 02:30:29;;;;;;;1.15;0.70;;;;;;;;;;10347248;28;20582;-76
2023/09/25 02:35:32;;;;;;;1.02;0.75;;;;;;;;;;10338677;28;20044;-76
2023/09/25 02:40:36;;;;;;;0.90;0.70;;;;;;;;;;10344211;28;20680;-76
2023/09/25 02:45:43;;;;;;;0.90;0.70;;;;;;;;;;10349477;28;20054;-77
2023/09/25 02:50:48;;;;;;;1.20;0.75;;;;;;;;;;10344088;28;20089;-76
2023/09/25 02:55:51;;;;;;;1.13;0.70;;;;;;;;;;10337196;28;20044;-76
2023/09/25 03:00:58;;;;;;;2.25;0.60;;;;;;;;;;10332191;28;20064;-76
2023/09/25 03:06:01;;;;;;;0.90;0.45;;;;;;;;;;10347752;28;20042;-76
2023/09/25 03:11:04;;;;;;;0.70;0.60;;;;;;;;;;10341776;28;20400;-76
2023/09/25 03:16:14;;;;;;;1.58;0.60;;;;;;;;;;10343778;28;20038;-77
2023/09/25 03:21:18;;;;;;;2.55;0.77;;;;;;;;;;10350510;28;20483;-76
2023/09/25 03:26:21;;;;;;;1.02;0.57;;;;;;;;;;10334701;28;20539;-76
2023/09/25 03:31:26;;;;;;;0.98;0.68;;;;;;;;;;10342010;28;20507;-76
2023/09/25 03:36:29;;;;;;;1.15;0.65;;;;;;;;;;10335001;28;20057;-77
2023/09/25 03:41:33;;;;;;;0.80;0.47;;;;;;;;;;10342622;28;20057;-76
2023/09/25 03:46:37;;;;;;;0.57;0.50;;;;;;;;;;10342034;28;20048;-77
2023/09/25 03:51:41;;;;;;;0.70;0.60;;;;;;;;;;10350461;28;20057;-77
2023/09/25 03:56:44;;;;;;;1.40;0.80;;;;;;;;;;10339762;28;20141;-76
2023/09/25 04:01:49;;;;;;;0.70;0.70;;;;;;;;;;10340119;28;20053;-76
2023/09/25 04:06:53;;;;;;;1.95;1.10;;;;;;;;;;10333551;28;20057;-76
2023/09/25 04:11:57;;;;;;;0.98;0.75;;;;;;;;;;10336341;28;20058;-76
2023/09/25 04:17:02;;;;;;;1.30;0.90;;;;;;;;;;10330192;28;20040;-76
2023/09/25 04:22:06;;;;;;;0.80;0.70;;;;;;;;;;10341771;28;20054;-77
2023/09/25 04:27:10;;;;;;;1.15;0.75;;;;;;;;;;10335856;28;20066;-77
2023/09/25 04:32:15;;;;;;;1.98;0.50;;;;;;;;;;10328105;28;20053;-76
2023/09/25 04:37:19;;;;;;;0.68;0.65;;;;;;;;;;10329206;28;20051;-77
2023/09/25 04:42:22;;;;;;;0.98;0.65;;;;;;;;;;10336849;28;20053;-76
2023/09/25 04:47:26;;;;;;;1.40;0.68;;;;;;;;;;10326957;28;20042;-77
2023/09/25 04:52:31;;;;;;;1.42;0.70;;;;;;;;;;10332824;28;20050;-76
2023/09/25 04:57:34;;;;;;;0.80;0.70;;;;;;;;;;10332235;28;20058;-76
2023/09/25 05:02:40;;;;;;;0.68;0.60;;;;;;;;;;10333484;28;20058;-76
2023/09/25 05:07:44;;;;;;;0.88;0.75;;;;;;;;;;10343299;28;20619;-76
2023/09/25 05:12:48;;;;;;;1.25;0.80;;;;;;;;;;10343041;28;20054;-77
2023/09/25 05:17:52;;;;;;;0.80;0.70;;;;;;;;;;10339685;28;20046;-76
2023/09/25 05:22:57;;;;;;;1.08;0.68;;;;;;;;;;10343788;28;20082;-76
2023/09/25 05:28:00;;;;;;;1.60;0.80;;;;;;;;;;10346338;28;20046;-76
2023/09/25 05:33:05;;;;;;;2.72;1.10;;;;;;;;;;10338796;28;20064;-77
2023/09/25 05:38:08;;;;;;;1.13;0.90;;;;;;;;;;10336375;28;20050;-77
2023/09/25 05:43:11;;;;;;;1.27;0.93;;;;;;;;;;10336811;28;20491;-77
2023/09/25 05:48:16;;;;;;;1.30;0.90;;;;;;;;;;10339032;28;20050;-77
2023/09/25 05:53:19;;;;;;;0.77;0.73;;;;;;;;;;10340009;28;20109;-76
2023/09/25 05:58:23;;;;;;;1.00;0.75;;;;;;;;;;10337861;28;20050;-76
2023/09/25 06:03:27;;;;;;;1.75;1.00;;;;;;;;;;10349093;28;20049;-77
2023/09/25 06:08:30;;;;;;;1.02;1.00;;;;;;;;;;10331206;28;20102;-77
2023/09/25 06:13:34;;;;;;;1.23;0.77;;;;;;;;;;10335625;28;20054;-77
2023/09/25 06:18:39;;;;;;;0.93;0.80;;;;;;;;;;10334300;28;20424;-78
2023/09/25 06:23:43;;;;;;;1.08;0.95;;;;;;;;;;10337119;28;20065;-77
2023/09/25 06:28:50;;;;;;;0.65;0.65;;;;;;;;;;10330966;28;20053;-77
2023/09/25 06:33:55;;;;;;;0.90;0.65;;;;;;;;;;10342149;28;20510;-77
2023/09/25 06:38:58;;;;;;;2.33;1.15;;;;;;;;;;10341694;28;20097;-77
2023/09/25 06:44:04;;;;;;;0.80;0.80;;;;;;;;;;10340009;28;20042;-77
2023/09/25 06:49:08;;;;;;;1.03;0.80;;;;;;;;;;10342551;28;20051;-77
2023/09/25 06:54:12;;;;;;;0.93;0.82;;;;;;;;;;10335477;28;20136;-77
2023/09/25 06:59:16;;;;;;;1.58;1.00;;;;;;;;;;10332481;28;20075;-77
2023/09/25 07:04:21;;;;;;;0.93;0.88;;;;;;;;;;10337766;28;20060;-77
2023/09/25 07:09:24;;;;;;;1.35;1.20;;;;;;;;;;10344491;28;20054;-77
2023/09/25 07:14:27;;;;;;;6.45;1.60;;;;;;;;;;10337160;28;20050;-77
2023/09/25 07:19:32;;;;;;;4.28;1.42;;;;;;;;;;10337205;28;20046;-77
2023/09/25 07:24:35;;;;;;;6.20;1.02;;;;;;;;;;10340713;28;20052;-77
2023/09/25 07:29:38;;;;;;;3.53;1.30;;;;;;;;;;10336008;28;20056;-77
2023/09/25 07:34:45;;;;;;;1.63;0.98;;;;;;;;;;10335072;28;20065;-77
2023/09/25 07:39:48;;;;;;;0.75;0.65;;;;;;;;;;10460894;23;20025;-79
2023/09/25 07:44:52;;;;;;;0.70;0.60;;;;;;;;;;10245120;28;20512;-78
2023/09/25 07:50:12;;;;;;;1.38;1.05;;;;;;;;;;10284101;28;20110;-79
2023/09/25 07:55:20;;;;;;;1.88;0.50;;;;;;;;;;10283584;28;20074;-78
2023/09/25 08:00:36;;;;;;;1.13;0.80;;;;;;;;;;10287196;28;20039;-78
2023/09/25 08:05:45;;;;;;;;;;;;;;;;;;10282184;28;20483;-78
2023/09/25 08:10:53;;;;;;;0.70;0.65;;;;;;;;;;10285082;28;19945;-78
2023/09/25 08:16:21;;;;;;;0.98;0.47;;;;;;;;;;10270218;28;20098;-79
2023/09/25 08:21:34;;;;;;;1.27;0.60;;;;;;;;;;10286718;28;20051;-78
2023/09/25 08:26:39;;;;;;;0.75;0.60;;;;;;;;;;10274752;28;20279;-78
2023/09/25 08:31:47;;;;;;;0.60;0.60;;;;;;;;;;10292227;28;20055;-78
2023/09/25 08:36:52;;;;;;;1.48;0.60;;;;;;;;;;10288622;28;20051;-78
2023/09/25 08:41:55;;;;;;;1.13;0.75;;;;;;;;;;10292983;28;20168;-78
2023/09/25 08:46:59;;;;;;;0.63;0.60;;;;;;;;;;10284997;28;20046;-77
2023/09/25 08:52:08;;;;;;;1.13;0.70;;;;;;;;;;10292989;28;20054;-78
2023/09/25 08:57:12;;;;;;;0.80;0.73;;;;;;;;;;10288665;28;20057;-78
2023/09/25 09:02:20;;;;;;;1.40;0.82;;;;;;;;;;10286679;28;20050;-78
2023/09/25 09:07:25;;;;;;;2.95;0.82;;;;;;;;;;10289048;28;20043;-78
2023/09/25 09:12:29;;;;;;;1.20;0.63;;;;;;;;;;10293077;28;20051;-77
2023/09/25 09:17:32;;;;;;;0.73;0.63;;;;;;;;;;10291435;28;20051;-78
2023/09/25 09:22:50;;;;;;;1.30;0.77;;;;;;;;;;10294754;28;20050;-78
2023/09/25 09:27:54;;;;;;;0.80;0.50;;;;;;;;;;10288289;28;20039;-77
2023/09/25 09:32:58;;;;;;;0.95;0.50;;;;;;;;;;10286017;28;20043;-77
2023/09/25 09:38:04;;;;;;;1.15;0.65;;;;;;;;;;10283102;28;20150;-77
2023/09/25 09:43:09;;;;;;;;;;;;;;;;;;10292675;28;20054;-78
2023/09/25 09:48:14;;;;;;;1.70;0.50;;;;;;;;;;10283252;28;19922;-77
2023/09/25 09:53:19;;;;;;;0.70;0.55;;;;;;;;;;10284482;28;20081;-77
2023/09/25 09:58:24;;;;;;;1.23;0.80;;;;;;;;;;10282173;28;20046;-78
2023/09/25 10:03:29;;;;;;;0.93;0.60;;;;;;;;;;10296092;28;20047;-77
2023/09/25 10:08:38;;;;;;;1.48;0.63;;;;;;;;;;10279884;28;20138;-78
2023/09/25 10:13:42;;;;;;;2.08;1.15;;;;;;;;;;10284049;28;20051;-77
2023/09/25 10:18:46;;;;;;;1.33;0.82;;;;;;;;;;10274970;28;20055;-77
2023/09/25 10:23:54;;;;;;;0.93;0.70;;;;;;;;;;10279699;28;20070;-78
2023/09/25 10:28:59;;;;;;;1.55;0.75;;;;;;;;;;10288199;28;20047;-77
2023/09/25 10:34:08;;;;;;;1.25;0.50;;;;;;;;;;10276795;28;20105;-78
2023/09/25 10:39:16;;;;;;;1.13;0.95;;;;;;;;;;10278908;28;20050;-77
2023/09/25 10:44:20;;;;;;;0.85;0.60;;;;;;;;;;10280559;28;20057;-77
2023/09/25 10:49:24;;;;;;;1.30;0.63;;;;;;;;;;10286112;28;20086;-77
2023/09/25 10:54:29;;;;;;;0.80;0.63;;;;;;;;;;10284262;28;20070;-77
2023/09/25 10:59:33;;;;;;;1.10;0.82;;;;;;;;;;10280502;28;20054;-77
2023/09/25 11:04:37;;;;;;;1.40;0.90;;;;;;;;;;10290834;28;20063;-77
2023/09/25 11:09:42;;;;;;;1.58;1.00;;;;;;;;;;10292378;28;20145;-78
2023/09/25 11:14:48;;;;;;;2.90;1.02;;;;;;;;;;10276383;28;20146;-77
2023/09/25 11:19:53;;;;;;;1.58;0.90;;;;;;;;;;10285541;28;20074;-77
2023/09/25 11:25:04;;;;;;;1.40;1.00;;;;;;;;;;10286470;28;20732;-75
2023/09/25 11:30:13;;;;;;;1.77;0.90;;;;;;;;;;10267446;28;20085;-75
2023/09/25 11:35:19;;;;;;;0.70;0.60;;;;;;;;;;10269718;28;20137;-75
2023/09/25 11:40:24;;;;;;;0.47;0.47;;;;;;;;;;10272701;28;20519;-75
2023/09/25 11:45:28;;;;;;;0.90;0.60;;;;;;;;;;10277152;28;20055;-75
2023/09/25 11:50:32;;;;;;;1.83;0.60;;;;;;;;;;10282145;28;20414;-75
2023/09/25 11:55:41;;;;;;;0.85;0.70;;;;;;;;;;10276973;28;20110;-75
2023/09/25 12:00:46;;;;;;;1.05;0.75;;;;;;;;;;10279728;28;20146;-75
2023/09/25 12:05:50;;;;;;;0.93;0.70;;;;;;;;;;10282888;28;20069;-75
2023/09/25 12:10:59;;;;;;;1.00;0.57;;;;;;;;;;10275605;28;20294;-76
2023/09/25 12:16:24;;;;;;;0.63;0.63;;;;;;;;;;10278861;28;20689;-75
2023/09/25 12:21:27;;;;;;;1.13;0.88;;;;;;;;;;10279975;28;20050;-75
2023/09/25 12:26:36;;;;;;;1.10;1.00;;;;;;;;;;10276665;28;20093;-75
2023/09/25 12:32:11;;;;;;;1.15;0.65;;;;;;;;;;10280101;28;20047;-75
2023/09/25 12:37:28;;;;;;;1.30;0.90;;;;;;;;;;10270044;28;20050;-75
2023/09/25 12:42:38;;;;;;;0.90;0.70;;;;;;;;;;10275181;28;20045;-75
2023/09/25 12:48:12;;;;;;;1.90;0.80;;;;;;;;;;10289914;28;20111;-75
2023/09/25 12:53:24;;;;;;;1.05;0.70;;;;;;;;;;10292688;28;20102;-75
2023/09/25 12:58:55;;;;;;;1.33;0.90;;;;;;;;;;10267773;28;20046;-75
2023/09/25 13:04:00;;;;;;;1.27;0.88;;;;;;;;;;10274371;28;20520;-75
2023/09/25 13:09:10;;;;;;;2.10;0.90;;;;;;;;;;10277339;28;20049;-75
2023/09/25 13:14:41;;;;;;;1.17;0.75;;;;;;;;;;10271833;28;20055;-75
2023/09/25 13:19:52;;;;;;;1.10;0.63;;;;;;;;;;10357497;23;20073;-75
2023/09/25 13:25:12;;;;;;;2.42;0.77;;;;;;;;;;10354150;28;20054;-76
2023/09/25 13:30:29;;;;;;;0.95;0.68;;;;;;;;;;10329427;28;20055;-75
2023/09/25 13:35:35;;;;;;;1.25;0.70;;;;;;;;;;10319241;28;20054;-75
2023/09/25 13:40:43;;;;;;;1.65;0.88;;;;;;;;;;10342843;23;20065;-77
2023/09/25 13:45:48;;;;;;;2.63;1.08;;;;;;;;;;10323855;28;20061;-77
2023/09/25 13:50:52;;;;;;;1.80;0.60;;;;;;;;;;10323000;28;20508;-77
2023/09/25 13:55:56;;;;;;;1.02;0.93;;;;;;;;;;10325815;28;20050;-77
2023/09/25 14:01:03;;;;;;;0.93;0.65;;;;;;;;;;10321549;28;20042;-77
2023/09/25 14:06:07;;;;;;;4.75;0.80;;;;;;;;;;10322688;28;20409;-77
2023/09/25 14:11:11;;;;;;;1.02;0.70;;;;;;;;;;10328167;28;20043;-77
2023/09/25 14:16:16;;;;;;;0.68;0.50;;;;;;;;;;10320051;28;20105;-77
2023/09/25 14:21:20;;;;;;;0.80;0.50;;;;;;;;;;10318667;28;20038;-77
2023/09/25 14:26:23;;;;;;;1.08;0.43;;;;;;;;;;10324033;28;20082;-77
2023/09/25 14:31:28;;;;;;;0.98;0.68;;;;;;;;;;10324403;28;20096;-76
2023/09/25 14:36:31;;;;;;;1.05;0.70;;;;;;;;;;10313730;28;20046;-77
2023/09/25 14:41:34;;;;;;;1.13;0.65;;;;;;;;;;10321461;28;20066;-77
2023/09/25 14:46:39;;;;;;;2.40;0.80;;;;;;;;;;10326612;28;20140;-77
2023/09/25 14:51:42;;;;;;;1.20;0.60;;;;;;;;;;10327219;28;20664;-77
2023/09/25 14:56:46;;;;;;;0.82;0.60;;;;;;;;;;10324468;28;20129;-77
2023/09/25 15:01:51;;;;;;;0.95;0.50;;;;;;;;;;10322542;28;20126;-77
2023/09/25 15:06:54;;;;;;;0.50;0.47;;;;;;;;;;10325876;28;20262;-77
2023/09/25 15:11:57;;;;;;;0.50;0.50;;;;;;;;;;10325413;28;20113;-77
2023/09/25 15:17:02;;;;;;;0.68;0.50;;;;;;;;;;10321364;28;20049;-77
2023/09/25 15:22:06;;;;;;;1.60;0.60;;;;;;;;;;10325644;28;20119;-77
2023/09/25 15:27:09;;;;;;;0.75;0.50;;;;;;;;;;10322148;28;20158;-77
2023/09/25 15:32:15;;;;;;;0.80;0.50;;;;;;;;;;10323748;28;20057;-77
2023/09/25 15:37:19;;;;;;;1.35;0.60;;;;;;;;;;10324212;28;20423;-77
2023/09/25 15:42:22;;;;;;;0.60;0.43;;;;;;;;;;10321710;28;20095;-77
2023/09/25 15:47:27;;;;;;;1.33;0.60;;;;;;;;;;10323807;28;20049;-77
2023/09/25 15:52:30;;;;;;;0.98;0.50;;;;;;;;;;10317916;28;20057;-76
2023/09/25 15:57:33;;;;;;;0.90;0.57;;;;;;;;;;10318007;28;20057;-77
2023/09/25 16:02:38;;;;;;;0.93;0.60;;;;;;;;;;10317281;28;20590;-77
2023/09/25 16:07:41;;;;;;;2.75;0.95;;;;;;;;;;10317295;28;20587;-77
2023/09/25 16:12:44;;;;;;;1.13;0.75;;;;;;;;;;10319785;28;20126;-77
2023/09/25 16:17:49;;;;;;;0.85;0.60;;;;;;;;;;10319595;28;20086;-76
2023/09/25 16:22:52;;;;;;;0.75;0.60;;;;;;;;;;10321652;28;20578;-76
2023/09/25 16:27:56;;;;;;;1.25;0.80;;;;;;;;;;10315102;28;20050;-77
2023/09/25 16:33:01;;;;;;;1.33;0.70;;;;;;;;;;10335411;28;20046;-77
2023/09/25 16:38:05;;;;;;;0.93;0.52;;;;;;;;;;10339397;28;20050;-76
2023/09/25 16:43:08;;;;;;;0.82;0.50;;;;;;;;;;10326517;28;20072;-77
2023/09/25 16:48:13;;;;;;;1.35;0.70;;;;;;;;;;10318472;28;20131;-77
2023/09/25 16:53:16;;;;;;;0.73;0.40;;;;;;;;;;10321231;28;20090;-77
2023/09/25 16:58:22;;;;;;;1.30;0.60;;;;;;;;;;10328314;28;20043;-76
2023/09/25 17:03:27;;;;;;;2.00;0.70;;;;;;;;;;10326567;28;20049;-77
2023/09/25 17:08:31;;;;;;;1.00;0.60;;;;;;;;;;10333654;28;20129;-77
2023/09/25 17:13:35;;;;;;;0.90;0.70;;;;;;;;;;10328837;28;20050;-77
2023/09/25 17:18:39;;;;;;;0.82;0.70;;;;;;;;;;10325456;28;20056;-77
2023/09/25 17:23:42;;;;;;;1.00;0.80;;;;;;;;;;10322259;28;20054;-77
2023/09/25 17:28:48;;;;;;;2.42;1.05;;;;;;;;;;10326890;28;20411;-77
2023/09/25 17:33:53;;;;;;;3.13;1.20;;;;;;;;;;10323802;28;20058;-77
2023/09/25 17:38:56;;;;;;;1.05;0.70;;;;;;;;;;10327700;28;20144;-77
2023/09/25 17:44:00;;;;;;;1.17;0.82;;;;;;;;;;10321439;28;20860;-76
2023/09/25 17:49:04;;;;;;;1.00;0.65;;;;;;;;;;10323980;28;20537;-77
2023/09/25 17:54:08;;;;;;;1.30;0.98;;;;;;;;;;10320096;28;20419;-76
2023/09/25 17:59:13;;;;;;;1.95;0.80;;;;;;;;;;10316205;28;20050;-76
2023/09/25 18:04:18;;;;;;;1.45;1.00;;;;;;;;;;10327745;28;20070;-77
2023/09/25 18:09:22;;;;;;;2.92;1.40;;;;;;;;;;10322239;28;20050;-77
2023/09/25 18:14:25;;;;;;;1.02;0.90;;;;;;;;;;10324278;28;20129;-77
2023/09/25 18:19:29;;;;;;;0.80;0.80;;;;;;;;;;10321201;28;20047;-77
2023/09/25 18:24:33;;;;;;;2.95;1.40;;;;;;;;;;10324351;28;20046;-77
2023/09/25 18:29:36;;;;;;;4.88;1.50;;;;;;;;;;10322985;28;20469;-76
2023/09/25 18:34:41;;;;;;;1.90;1.38;;;;;;;;;;10324230;28;20467;-77
2023/09/25 18:39:45;;;;;;;2.10;1.40;;;;;;;;;;10323261;28;20145;-77
2023/09/25 18:44:48;;;;;;;2.90;1.70;;;;;;;;;;10318573;28;20058;-76
2023/09/25 18:49:53;;;;;;;2.63;1.55;;;;;;;;;;10314495;28;20043;-76
2023/09/25 18:54:56;;;;;;;2.33;1.60;;;;;;;;;;10322282;28;20657;-77
2023/09/25 18:59:59;;;;;;;5.07;1.98;;;;;;;;;;10320629;28;20074;-77
2023/09/25 19:05:05;;;;;;;4.18;2.28;;;;;;;;;;10326154;28;20137;-77
2023/09/25 19:10:09;;;;;;;4.23;1.70;;;;;;;;;;10323618;28;20066;-77
2023/09/25 19:15:13;;;;;;;2.13;1.50;;;;;;;;;;10316951;28;20098;-76
2023/09/25 19:20:18;;;;;;;2.50;1.42;;;;;;;;;;10319307;28;20050;-77
2023/09/25 19:25:21;;;;;;;4.97;1.48;;;;;;;;;;10315704;28;20046;-76
2023/09/25 19:30:26;;;;;;;2.80;1.30;;;;;;;;;;10318883;28;20059;-76
2023/09/25 19:35:31;;;;;;;4.13;1.70;;;;;;;;;;10320223;28;20048;-76
2023/09/25 19:40:35;;;;;;;3.67;1.70;;;;;;;;;;10341815;23;20053;-78
2023/09/25 19:45:48;;;;;;;3.50;1.30;;;;;;;;;;10355726;28;20057;-77
2023/09/25 19:50:56;;;;;;;2.47;1.38;;;;;;;;;;10345820;28;20050;-77
2023/09/25 19:56:03;;;;;;;2.25;1.50;;;;;;;;;;10322658;28;20051;-77
2023/09/25 20:01:11;;;;;;;2.92;1.65;;;;;;;;;;10340005;28;20058;-77
2023/09/25 20:06:16;;;;;;;2.25;1.50;;;;;;;;;;10335205;28;20126;-77
2023/09/25 20:11:23;;;;;;;3.35;1.73;;;;;;;;;;10337582;28;20061;-77
2023/09/25 20:16:31;;;;;;;2.10;1.23;;;;;;;;;;10326724;28;20581;-77
2023/09/25 20:21:40;;;;;;;2.40;1.30;;;;;;;;;;10343747;28;20050;-77
2023/09/25 20:26:47;;;;;;;2.60;1.33;;;;;;;;;;10321095;28;20289;-77
2023/09/25 20:31:50;;;;;;;;;;;;;;;;;;10346345;28;20061;-77
2023/09/25 20:36:59;;;;;;;2.60;1.40;;;;;;;;;;10324777;28;19981;-77
2023/09/25 20:42:05;;;;;;;1.55;1.20;;;;;;;;;;10352269;28;20050;-77
2023/09/25 20:47:11;;;;;;;2.35;1.40;;;;;;;;;;10336976;28;20060;-77
2023/09/25 20:52:18;;;;;;;3.20;1.10;;;;;;;;;;10354194;28;20051;-77
2023/09/25 20:57:27;;;;;;;1.73;1.20;;;;;;;;;;10334430;28;20092;-77
2023/09/25 21:02:44;;;;;;;;;;;;;;;;;;;;;
2023/09/25 21:07:54;;;;;;;2.03;1.30;;;;;;;;;;10331325;28;20578;-77
2023/09/25 21:13:03;;;;;;;2.17;1.45;;;;;;;;;;10350517;28;20045;-77
2023/09/25 21:18:10;;;;;;;1.42;1.33;;;;;;;;;;10344773;28;20046;-78
2023/09/25 21:23:16;;;;;;;1.98;1.30;;;;;;;;;;10347610;28;20634;-76
2023/09/25 21:28:19;;;;;;;1.42;1.10;;;;;;;;;;10329607;28;20145;-77
2023/09/25 21:33:23;;;;;;;2.00;1.20;;;;;;;;;;10350747;28;20137;-77
2023/09/25 21:38:27;;;;;;;2.08;1.23;;;;;;;;;;10338645;28;20077;-76
2023/09/25 21:43:31;;;;;;;1.88;1.20;;;;;;;;;;10344841;28;20060;-77
2023/09/25 21:48:35;;;;;;;2.83;1.58;;;;;;;;;;10346824;28;20050;-76
2023/09/25 21:53:42;;;;;;;3.17;1.30;;;;;;;;;;10357065;28;20084;-76
2023/09/25 21:58:45;;;;;;;1.30;0.88;;;;;;;;;;10354187;28;20081;-76
2023/09/25 22:03:51;;;;;;;1.48;1.08;;;;;;;;;;10351646;28;20133;-77
2023/09/25 22:09:00;;;;;;;3.20;1.17;;;;;;;;;;10351527;28;20545;-77
2023/09/25 22:14:04;;;;;;;2.05;0.90;;;;;;;;;;10343939;28;20110;-77
2023/09/25 22:19:08;;;;;;;1.38;1.13;;;;;;;;;;10342780;28;20504;-77
2023/09/25 22:24:14;;;;;;;1.63;0.95;;;;;;;;;;10355697;28;20050;-76
2023/09/25 22:29:18;;;;;;;;;;;;;;;;;;10364254;28;20042;-77
2023/09/25 22:34:22;;;;;;;1.83;1.30;;;;;;;;;;10348348;28;19925;-76
2023/09/25 22:39:30;;;;;;;1.58;1.02;;;;;;;;;;10347831;28;20057;-76
2023/09/25 22:44:35;;;;;;;1.98;1.20;;;;;;;;;;10330255;28;20046;-77
2023/09/25 22:49:39;;;;;;;3.30;1.25;;;;;;;;;;10347310;28;20064;-77
2023/09/25 22:54:46;;;;;;;2.40;1.50;;;;;;;;;;10338757;28;20050;-76
2023/09/25 22:59:50;;;;;;;2.33;1.58;;;;;;;;;;10351750;28;20050;-77
2023/09/25 23:05:02;;;;;;;2.67;1.30;;;;;;;;;;10324301;28;20049;-77
2023/09/25 23:10:19;;;;;;;2.15;1.40;;;;;;;;;;10312742;28;20054;-77
2023/09/25 23:15:30;;;;;;;1.63;1.02;;;;;;;;;;10311853;28;20602;-77
2023/09/25 23:20:42;;;;;;;7.43;1.23;;;;;;;;;;10327687;28;20592;-77
2023/09/25 23:25:52;;;;;;;2.05;1.20;;;;;;;;;;10316189;28;20121;-76
2023/09/25 23:30:59;;;;;;;1.52;1.20;;;;;;;;;;10324097;28;20057;-76
2023/09/25 23:36:03;;;;;;;1.67;1.20;;;;;;;;;;10324363;28;20109;-76
2023/09/25 23:41:08;;;;;;;1.63;1.20;;;;;;;;;;10319017;28;20098;-76
2023/09/25 23:46:13;;;;;;;2.55;1.10;;;;;;;;;;10320320;28;20055;-76
2023/09/25 23:51:17;;;;;;;2.05;1.10;;;;;;;;;;10318934;28;20058;-76
2023/09/25 23:56:24;;;;;;;1.83;1.20;;;;;;;;;;10316704;28;20069;-76
